sensor_id;sensor_type;location;lat;lon;timestamp;P1;durP1;ratioP1;P2;durP2;ratioP2
43813;SDS011;29669;55.706;37.656;2022-08-20T00:01:10;26.17;;;14.77;;
43813;SDS011;29669;55.706;37.656;2022-08-20T00:04:31;24.02;;;13.18;;
43813;SDS011;29669;55.706;37.656;2022-08-20T00:07:52;27.15;;;14.40;;
43813;SDS011;29669;55.706;37.656;2022-08-20T00:11:14;25.60;;;14.00;;
43813;SDS011;29669;55.706;37.656;2022-08-20T00:14:41;31.42;;;14.93;;
43813;SDS011;29669;55.706;37.656;2022-08-20T00:18:02;24.05;;;14.88;;
43813;SDS011;29669;55.706;37.656;2022-08-20T00:21:24;31.00;;;15.98;;
43813;SDS011;29669;55.706;37.656;2022-08-20T00:24:45;28.33;;;15.07;;
43813;SDS011;29669;55.706;37.656;2022-08-20T00:28:06;28.23;;;15.50;;
43813;SDS011;29669;55.706;37.656;2022-08-20T00:31:27;30.05;;;15.23;;
43813;SDS011;29669;55.706;37.656;2022-08-20T00:34:48;31.45;;;17.15;;
43813;SDS011;29669;55.706;37.656;2022-08-20T00:38:09;29.48;;;17.92;;
43813;SDS011;29669;55.706;37.656;2022-08-20T00:41:30;31.45;;;16.00;;
43813;SDS011;29669;55.706;37.656;2022-08-20T00:44:51;24.48;;;15.65;;
43813;SDS011;29669;55.706;37.656;2022-08-20T00:48:12;24.33;;;15.18;;
43813;SDS011;29669;55.706;37.656;2022-08-20T00:55:03;32.97;;;15.90;;
43813;SDS011;29669;55.706;37.656;2022-08-20T00:58:26;26.00;;;14.13;;
43813;SDS011;29669;55.706;37.656;2022-08-20T01:01:48;30.80;;;15.30;;
43813;SDS011;29669;55.706;37.656;2022-08-20T01:05:10;20.45;;;14.30;;
43813;SDS011;29669;55.706;37.656;2022-08-20T01:08:35;28.42;;;14.85;;
43813;SDS011;29669;55.706;37.656;2022-08-20T01:11:49;22.45;;;14.15;;
43813;SDS011;29669;55.706;37.656;2022-08-20T01:15:11;26.65;;;14.65;;
43813;SDS011;29669;55.706;37.656;2022-08-20T01:18:37;20.17;;;13.55;;
43813;SDS011;29669;55.706;37.656;2022-08-20T01:21:59;19.88;;;13.60;;
43813;SDS011;29669;55.706;37.656;2022-08-20T01:29:24;24.50;;;12.48;;
43813;SDS011;29669;55.706;37.656;2022-08-20T01:32:53;22.80;;;13.10;;
43813;SDS011;29669;55.706;37.656;2022-08-20T01:36:16;29.30;;;13.82;;
43813;SDS011;29669;55.706;37.656;2022-08-20T01:39:40;18.67;;;12.30;;
43813;SDS011;29669;55.706;37.656;2022-08-20T01:43:03;20.10;;;10.60;;
43813;SDS011;29669;55.706;37.656;2022-08-20T01:46:31;20.13;;;10.40;;
43813;SDS011;29669;55.706;37.656;2022-08-20T01:50:05;17.10;;;11.50;;
43813;SDS011;29669;55.706;37.656;2022-08-20T01:53:36;21.80;;;9.55;;
43813;SDS011;29669;55.706;37.656;2022-08-20T01:57:00;16.55;;;9.55;;
43813;SDS011;29669;55.706;37.656;2022-08-20T02:00:24;16.52;;;9.13;;
43813;SDS011;29669;55.706;37.656;2022-08-20T02:03:47;14.48;;;8.75;;
43813;SDS011;29669;55.706;37.656;2022-08-20T02:07:11;13.18;;;8.50;;
43813;SDS011;29669;55.706;37.656;2022-08-20T02:10:37;15.00;;;8.45;;
43813;SDS011;29669;55.706;37.656;2022-08-20T02:13:59;19.05;;;9.13;;
43813;SDS011;29669;55.706;37.656;2022-08-20T02:17:22;16.05;;;8.68;;
43813;SDS011;29669;55.706;37.656;2022-08-20T02:20:44;13.50;;;7.95;;
43813;SDS011;29669;55.706;37.656;2022-08-20T02:24:07;14.80;;;8.65;;
43813;SDS011;29669;55.706;37.656;2022-08-20T02:27:28;14.10;;;8.38;;
43813;SDS011;29669;55.706;37.656;2022-08-20T02:30:52;12.65;;;8.32;;
43813;SDS011;29669;55.706;37.656;2022-08-20T02:34:14;17.77;;;8.82;;
43813;SDS011;29669;55.706;37.656;2022-08-20T02:37:35;16.05;;;8.82;;
43813;SDS011;29669;55.706;37.656;2022-08-20T02:40:50;20.25;;;9.20;;
43813;SDS011;29669;55.706;37.656;2022-08-20T02:44:11;15.88;;;9.43;;
43813;SDS011;29669;55.706;37.656;2022-08-20T02:47:34;16.63;;;9.75;;
43813;SDS011;29669;55.706;37.656;2022-08-20T02:50:58;16.70;;;9.55;;
43813;SDS011;29669;55.706;37.656;2022-08-20T02:54:21;22.85;;;12.13;;
43813;SDS011;29669;55.706;37.656;2022-08-20T02:57:42;24.50;;;13.38;;
43813;SDS011;29669;55.706;37.656;2022-08-20T03:01:06;26.60;;;15.10;;
43813;SDS011;29669;55.706;37.656;2022-08-20T03:04:30;26.13;;;17.33;;
43813;SDS011;29669;55.706;37.656;2022-08-20T03:07:51;30.23;;;19.90;;
43813;SDS011;29669;55.706;37.656;2022-08-20T03:11:13;38.53;;;20.50;;
43813;SDS011;29669;55.706;37.656;2022-08-20T03:14:34;36.10;;;22.25;;
43813;SDS011;29669;55.706;37.656;2022-08-20T03:17:55;32.10;;;21.55;;
43813;SDS011;29669;55.706;37.656;2022-08-20T03:21:16;42.22;;;23.63;;
43813;SDS011;29669;55.706;37.656;2022-08-20T03:24:37;47.28;;;24.40;;
43813;SDS011;29669;55.706;37.656;2022-08-20T03:27:59;46.03;;;24.55;;
43813;SDS011;29669;55.706;37.656;2022-08-20T03:31:20;41.65;;;22.27;;
43813;SDS011;29669;55.706;37.656;2022-08-20T03:34:42;42.60;;;22.88;;
43813;SDS011;29669;55.706;37.656;2022-08-20T03:38:07;35.92;;;20.80;;
43813;SDS011;29669;55.706;37.656;2022-08-20T03:41:39;32.20;;;18.42;;
43813;SDS011;29669;55.706;37.656;2022-08-20T03:45:00;27.27;;;16.10;;
43813;SDS011;29669;55.706;37.656;2022-08-20T03:48:26;25.42;;;14.20;;
43813;SDS011;29669;55.706;37.656;2022-08-20T03:51:48;22.60;;;13.23;;
43813;SDS011;29669;55.706;37.656;2022-08-20T03:55:10;26.08;;;12.90;;
43813;SDS011;29669;55.706;37.656;2022-08-20T03:58:32;21.23;;;11.75;;
43813;SDS011;29669;55.706;37.656;2022-08-20T04:01:53;22.00;;;12.02;;
43813;SDS011;29669;55.706;37.656;2022-08-20T04:05:14;22.67;;;14.05;;
43813;SDS011;29669;55.706;37.656;2022-08-20T04:08:35;24.10;;;13.23;;
43813;SDS011;29669;55.706;37.656;2022-08-20T04:11:56;24.08;;;13.38;;
43813;SDS011;29669;55.706;37.656;2022-08-20T04:15:17;22.45;;;13.30;;
43813;SDS011;29669;55.706;37.656;2022-08-20T04:18:38;26.05;;;13.73;;
43813;SDS011;29669;55.706;37.656;2022-08-20T04:22:08;21.63;;;11.35;;
43813;SDS011;29669;55.706;37.656;2022-08-20T04:25:30;23.13;;;12.02;;
43813;SDS011;29669;55.706;37.656;2022-08-20T04:28:53;15.82;;;11.07;;
43813;SDS011;29669;55.706;37.656;2022-08-20T04:32:14;20.27;;;11.90;;
43813;SDS011;29669;55.706;37.656;2022-08-20T04:35:35;21.98;;;10.98;;
43813;SDS011;29669;55.706;37.656;2022-08-20T04:38:56;14.80;;;9.50;;
43813;SDS011;29669;55.706;37.656;2022-08-20T04:42:17;15.85;;;10.70;;
43813;SDS011;29669;55.706;37.656;2022-08-20T04:45:38;18.88;;;9.25;;
43813;SDS011;29669;55.706;37.656;2022-08-20T04:48:59;20.83;;;10.35;;
43813;SDS011;29669;55.706;37.656;2022-08-20T04:52:20;13.95;;;8.73;;
43813;SDS011;29669;55.706;37.656;2022-08-20T04:55:43;18.38;;;9.48;;
43813;SDS011;29669;55.706;37.656;2022-08-20T04:59:05;15.05;;;8.68;;
43813;SDS011;29669;55.706;37.656;2022-08-20T05:02:26;26.45;;;10.23;;
43813;SDS011;29669;55.706;37.656;2022-08-20T05:05:48;14.40;;;8.25;;
43813;SDS011;29669;55.706;37.656;2022-08-20T05:09:09;17.08;;;9.40;;
43813;SDS011;29669;55.706;37.656;2022-08-20T05:12:30;14.60;;;8.65;;
43813;SDS011;29669;55.706;37.656;2022-08-20T05:16:02;22.70;;;9.40;;
43813;SDS011;29669;55.706;37.656;2022-08-20T05:19:23;16.58;;;8.60;;
43813;SDS011;29669;55.706;37.656;2022-08-20T05:22:44;22.42;;;9.88;;
43813;SDS011;29669;55.706;37.656;2022-08-20T05:26:06;14.25;;;8.32;;
43813;SDS011;29669;55.706;37.656;2022-08-20T05:29:28;15.85;;;9.02;;
43813;SDS011;29669;55.706;37.656;2022-08-20T05:32:49;14.57;;;8.07;;
43813;SDS011;29669;55.706;37.656;2022-08-20T05:36:10;17.45;;;8.35;;
43813;SDS011;29669;55.706;37.656;2022-08-20T05:39:31;20.35;;;7.85;;
43813;SDS011;29669;55.706;37.656;2022-08-20T05:42:52;18.52;;;8.57;;
43813;SDS011;29669;55.706;37.656;2022-08-20T05:46:13;16.13;;;9.07;;
43813;SDS011;29669;55.706;37.656;2022-08-20T05:49:34;17.95;;;9.02;;
43813;SDS011;29669;55.706;37.656;2022-08-20T05:52:56;17.42;;;7.72;;
43813;SDS011;29669;55.706;37.656;2022-08-20T05:56:17;13.23;;;7.90;;
43813;SDS011;29669;55.706;37.656;2022-08-20T05:59:38;13.30;;;7.80;;
43813;SDS011;29669;55.706;37.656;2022-08-20T06:02:59;14.80;;;7.28;;
43813;SDS011;29669;55.706;37.656;2022-08-20T06:06:39;11.93;;;7.07;;
43813;SDS011;29669;55.706;37.656;2022-08-20T06:10:00;29.02;;;8.05;;
43813;SDS011;29669;55.706;37.656;2022-08-20T06:13:22;9.30;;;5.90;;
43813;SDS011;29669;55.706;37.656;2022-08-20T06:16:43;14.10;;;7.45;;
43813;SDS011;29669;55.706;37.656;2022-08-20T06:20:05;18.98;;;6.53;;
43813;SDS011;29669;55.706;37.656;2022-08-20T06:23:29;12.32;;;6.03;;
43813;SDS011;29669;55.706;37.656;2022-08-20T06:27:04;9.82;;;6.32;;
43813;SDS011;29669;55.706;37.656;2022-08-20T06:30:25;16.38;;;6.95;;
43813;SDS011;29669;55.706;37.656;2022-08-20T06:33:46;9.55;;;6.18;;
43813;SDS011;29669;55.706;37.656;2022-08-20T06:37:14;15.95;;;5.68;;
43813;SDS011;29669;55.706;37.656;2022-08-20T06:40:37;14.30;;;5.53;;
43813;SDS011;29669;55.706;37.656;2022-08-20T06:43:58;11.73;;;5.75;;
43813;SDS011;29669;55.706;37.656;2022-08-20T06:47:19;25.40;;;6.53;;
43813;SDS011;29669;55.706;37.656;2022-08-20T06:50:42;12.95;;;4.60;;
43813;SDS011;29669;55.706;37.656;2022-08-20T06:54:05;13.00;;;5.13;;
43813;SDS011;29669;55.706;37.656;2022-08-20T06:57:35;8.85;;;4.38;;
43813;SDS011;29669;55.706;37.656;2022-08-20T07:00:57;17.73;;;4.70;;
43813;SDS011;29669;55.706;37.656;2022-08-20T07:04:18;7.30;;;4.70;;
43813;SDS011;29669;55.706;37.656;2022-08-20T07:07:39;8.68;;;4.10;;
43813;SDS011;29669;55.706;37.656;2022-08-20T07:11:04;9.15;;;4.68;;
43813;SDS011;29669;55.706;37.656;2022-08-20T07:14:32;5.97;;;4.55;;
43813;SDS011;29669;55.706;37.656;2022-08-20T07:17:55;10.10;;;5.20;;
43813;SDS011;29669;55.706;37.656;2022-08-20T07:21:17;9.88;;;5.05;;
43813;SDS011;29669;55.706;37.656;2022-08-20T07:24:31;8.07;;;4.50;;
43813;SDS011;29669;55.706;37.656;2022-08-20T07:28:03;12.25;;;4.95;;
43813;SDS011;29669;55.706;37.656;2022-08-20T07:31:26;9.80;;;4.63;;
43813;SDS011;29669;55.706;37.656;2022-08-20T07:35:08;13.07;;;4.50;;
43813;SDS011;29669;55.706;37.656;2022-08-20T07:38:31;14.98;;;4.72;;
43813;SDS011;29669;55.706;37.656;2022-08-20T07:41:53;6.53;;;4.68;;
43813;SDS011;29669;55.706;37.656;2022-08-20T07:45:19;13.00;;;4.80;;
43813;SDS011;29669;55.706;37.656;2022-08-20T07:48:41;11.75;;;4.75;;
43813;SDS011;29669;55.706;37.656;2022-08-20T07:52:03;14.60;;;6.03;;
43813;SDS011;29669;55.706;37.656;2022-08-20T07:55:25;15.43;;;4.65;;
43813;SDS011;29669;55.706;37.656;2022-08-20T07:59:02;7.05;;;3.72;;
43813;SDS011;29669;55.706;37.656;2022-08-20T08:02:24;11.05;;;3.95;;
43813;SDS011;29669;55.706;37.656;2022-08-20T08:05:47;11.52;;;4.00;;
43813;SDS011;29669;55.706;37.656;2022-08-20T08:09:10;9.10;;;4.57;;
43813;SDS011;29669;55.706;37.656;2022-08-20T08:12:40;10.27;;;5.05;;
43813;SDS011;29669;55.706;37.656;2022-08-20T08:16:05;7.05;;;3.95;;
43813;SDS011;29669;55.706;37.656;2022-08-20T08:19:28;11.82;;;4.18;;
43813;SDS011;29669;55.706;37.656;2022-08-20T08:22:53;11.68;;;4.60;;
43813;SDS011;29669;55.706;37.656;2022-08-20T08:26:30;13.77;;;4.50;;
43813;SDS011;29669;55.706;37.656;2022-08-20T08:29:51;11.18;;;3.83;;
43813;SDS011;29669;55.706;37.656;2022-08-20T08:33:19;14.32;;;3.83;;
43813;SDS011;29669;55.706;37.656;2022-08-20T08:36:43;10.23;;;4.63;;
43813;SDS011;29669;55.706;37.656;2022-08-20T08:40:04;8.48;;;4.18;;
43813;SDS011;29669;55.706;37.656;2022-08-20T08:43:25;10.07;;;3.88;;
43813;SDS011;29669;55.706;37.656;2022-08-20T08:46:41;8.93;;;5.25;;
43813;SDS011;29669;55.706;37.656;2022-08-20T08:50:05;11.02;;;4.82;;
43813;SDS011;29669;55.706;37.656;2022-08-20T08:53:49;15.60;;;4.15;;
43813;SDS011;29669;55.706;37.656;2022-08-20T08:57:13;10.02;;;5.35;;
43813;SDS011;29669;55.706;37.656;2022-08-20T09:00:34;9.80;;;5.18;;
43813;SDS011;29669;55.706;37.656;2022-08-20T09:04:03;14.85;;;5.53;;
43813;SDS011;29669;55.706;37.656;2022-08-20T09:07:29;9.98;;;5.43;;
43813;SDS011;29669;55.706;37.656;2022-08-20T09:10:52;15.90;;;5.60;;
43813;SDS011;29669;55.706;37.656;2022-08-20T09:14:13;13.02;;;5.00;;
43813;SDS011;29669;55.706;37.656;2022-08-20T09:17:34;12.63;;;5.85;;
43813;SDS011;29669;55.706;37.656;2022-08-20T09:20:55;19.30;;;6.57;;
43813;SDS011;29669;55.706;37.656;2022-08-20T09:24:16;12.75;;;6.35;;
43813;SDS011;29669;55.706;37.656;2022-08-20T09:27:37;13.20;;;7.30;;
43813;SDS011;29669;55.706;37.656;2022-08-20T09:30:58;10.57;;;7.03;;
43813;SDS011;29669;55.706;37.656;2022-08-20T09:34:19;12.52;;;6.95;;
43813;SDS011;29669;55.706;37.656;2022-08-20T09:37:40;15.02;;;8.50;;
43813;SDS011;29669;55.706;37.656;2022-08-20T09:41:01;15.27;;;8.65;;
43813;SDS011;29669;55.706;37.656;2022-08-20T09:44:22;19.27;;;8.60;;
43813;SDS011;29669;55.706;37.656;2022-08-20T09:47:43;19.42;;;9.60;;
43813;SDS011;29669;55.706;37.656;2022-08-20T09:51:04;18.45;;;9.52;;
43813;SDS011;29669;55.706;37.656;2022-08-20T09:54:25;16.25;;;10.48;;
43813;SDS011;29669;55.706;37.656;2022-08-20T09:57:52;20.08;;;9.93;;
43813;SDS011;29669;55.706;37.656;2022-08-20T10:01:14;17.25;;;9.55;;
43813;SDS011;29669;55.706;37.656;2022-08-20T10:04:36;16.17;;;8.93;;
43813;SDS011;29669;55.706;37.656;2022-08-20T10:07:57;19.13;;;9.35;;
43813;SDS011;29669;55.706;37.656;2022-08-20T10:11:18;17.33;;;9.20;;
43813;SDS011;29669;55.706;37.656;2022-08-20T10:14:39;15.30;;;9.40;;
43813;SDS011;29669;55.706;37.656;2022-08-20T10:18:03;18.83;;;10.35;;
43813;SDS011;29669;55.706;37.656;2022-08-20T10:21:25;21.42;;;10.02;;
43813;SDS011;29669;55.706;37.656;2022-08-20T10:24:46;19.63;;;9.23;;
43813;SDS011;29669;55.706;37.656;2022-08-20T10:28:07;19.55;;;10.32;;
43813;SDS011;29669;55.706;37.656;2022-08-20T10:31:28;18.92;;;9.10;;
43813;SDS011;29669;55.706;37.656;2022-08-20T10:34:49;15.75;;;8.15;;
43813;SDS011;29669;55.706;37.656;2022-08-20T10:38:10;14.60;;;8.77;;
43813;SDS011;29669;55.706;37.656;2022-08-20T10:41:31;15.40;;;8.13;;
43813;SDS011;29669;55.706;37.656;2022-08-20T10:44:52;13.02;;;7.75;;
43813;SDS011;29669;55.706;37.656;2022-08-20T10:48:13;12.98;;;7.82;;
43813;SDS011;29669;55.706;37.656;2022-08-20T10:51:34;12.27;;;7.55;;
43813;SDS011;29669;55.706;37.656;2022-08-20T10:54:55;11.70;;;7.60;;
43813;SDS011;29669;55.706;37.656;2022-08-20T10:58:17;15.55;;;7.63;;
43813;SDS011;29669;55.706;37.656;2022-08-20T11:01:45;13.25;;;7.28;;
43813;SDS011;29669;55.706;37.656;2022-08-20T11:05:06;9.13;;;6.40;;
43813;SDS011;29669;55.706;37.656;2022-08-20T11:08:27;11.30;;;6.32;;
43813;SDS011;29669;55.706;37.656;2022-08-20T11:11:48;15.00;;;6.50;;
43813;SDS011;29669;55.706;37.656;2022-08-20T11:15:09;10.27;;;5.80;;
43813;SDS011;29669;55.706;37.656;2022-08-20T11:18:30;11.70;;;5.93;;
43813;SDS011;29669;55.706;37.656;2022-08-20T11:21:53;9.70;;;5.78;;
43813;SDS011;29669;55.706;37.656;2022-08-20T11:25:14;14.20;;;5.80;;
43813;SDS011;29669;55.706;37.656;2022-08-20T11:28:35;19.42;;;6.28;;
43813;SDS011;29669;55.706;37.656;2022-08-20T11:31:56;18.45;;;6.47;;
43813;SDS011;29669;55.706;37.656;2022-08-20T11:35:17;7.75;;;4.35;;
43813;SDS011;29669;55.706;37.656;2022-08-20T11:38:55;13.15;;;5.32;;
43813;SDS011;29669;55.706;37.656;2022-08-20T11:42:16;12.00;;;6.03;;
43813;SDS011;29669;55.706;37.656;2022-08-20T11:49:35;18.13;;;5.25;;
43813;SDS011;29669;55.706;37.656;2022-08-20T11:52:56;16.50;;;5.35;;
43813;SDS011;29669;55.706;37.656;2022-08-20T11:56:17;7.65;;;4.53;;
43813;SDS011;29669;55.706;37.656;2022-08-20T11:59:38;10.95;;;5.00;;
43813;SDS011;29669;55.706;37.656;2022-08-20T12:03:04;13.75;;;4.15;;
43813;SDS011;29669;55.706;37.656;2022-08-20T12:06:26;8.02;;;4.50;;
43813;SDS011;29669;55.706;37.656;2022-08-20T12:09:48;15.95;;;4.65;;
43813;SDS011;29669;55.706;37.656;2022-08-20T12:13:09;10.10;;;4.15;;
43813;SDS011;29669;55.706;37.656;2022-08-20T12:16:36;8.65;;;3.80;;
43813;SDS011;29669;55.706;37.656;2022-08-20T12:19:58;8.43;;;4.03;;
43813;SDS011;29669;55.706;37.656;2022-08-20T12:23:20;12.02;;;4.50;;
43813;SDS011;29669;55.706;37.656;2022-08-20T12:26:41;12.73;;;4.30;;
43813;SDS011;29669;55.706;37.656;2022-08-20T12:30:04;9.02;;;4.35;;
43813;SDS011;29669;55.706;37.656;2022-08-20T12:33:29;8.55;;;4.15;;
43813;SDS011;29669;55.706;37.656;2022-08-20T12:36:58;6.18;;;4.03;;
43813;SDS011;29669;55.706;37.656;2022-08-20T12:40:22;11.63;;;5.20;;
43813;SDS011;29669;55.706;37.656;2022-08-20T12:43:45;10.65;;;3.95;;
43813;SDS011;29669;55.706;37.656;2022-08-20T12:47:11;9.93;;;4.18;;
43813;SDS011;29669;55.706;37.656;2022-08-20T12:50:37;10.30;;;4.55;;
43813;SDS011;29669;55.706;37.656;2022-08-20T12:53:52;8.25;;;3.92;;
43813;SDS011;29669;55.706;37.656;2022-08-20T12:57:11;12.05;;;4.20;;
43813;SDS011;29669;55.706;37.656;2022-08-20T13:00:42;12.38;;;4.20;;
43813;SDS011;29669;55.706;37.656;2022-08-20T13:04:04;9.93;;;4.25;;
43813;SDS011;29669;55.706;37.656;2022-08-20T13:07:25;7.03;;;3.63;;
43813;SDS011;29669;55.706;37.656;2022-08-20T13:10:46;11.93;;;4.00;;
43813;SDS011;29669;55.706;37.656;2022-08-20T13:14:07;7.05;;;4.53;;
43813;SDS011;29669;55.706;37.656;2022-08-20T13:17:28;8.43;;;4.20;;
43813;SDS011;29669;55.706;37.656;2022-08-20T13:20:49;9.90;;;4.22;;
43813;SDS011;29669;55.706;37.656;2022-08-20T13:24:10;11.57;;;5.30;;
43813;SDS011;29669;55.706;37.656;2022-08-20T13:27:31;11.50;;;5.28;;
43813;SDS011;29669;55.706;37.656;2022-08-20T13:30:52;10.75;;;5.15;;
43813;SDS011;29669;55.706;37.656;2022-08-20T13:34:14;17.60;;;6.63;;
43813;SDS011;29669;55.706;37.656;2022-08-20T13:37:36;10.48;;;4.97;;
43813;SDS011;29669;55.706;37.656;2022-08-20T13:40:58;12.18;;;5.82;;
43813;SDS011;29669;55.706;37.656;2022-08-20T13:44:19;10.95;;;6.40;;
43813;SDS011;29669;55.706;37.656;2022-08-20T13:47:41;13.10;;;6.35;;
43813;SDS011;29669;55.706;37.656;2022-08-20T13:51:02;13.18;;;6.28;;
43813;SDS011;29669;55.706;37.656;2022-08-20T13:54:24;12.88;;;6.60;;
43813;SDS011;29669;55.706;37.656;2022-08-20T13:57:45;11.77;;;6.18;;
43813;SDS011;29669;55.706;37.656;2022-08-20T14:01:18;15.27;;;6.55;;
43813;SDS011;29669;55.706;37.656;2022-08-20T14:04:26;11.10;;;5.82;;
43813;SDS011;29669;55.706;37.656;2022-08-20T14:07:40;13.40;;;6.47;;
43813;SDS011;29669;55.706;37.656;2022-08-20T14:10:55;15.43;;;5.97;;
43813;SDS011;29669;55.706;37.656;2022-08-20T14:14:18;11.43;;;6.07;;
43813;SDS011;29669;55.706;37.656;2022-08-20T14:17:40;13.30;;;5.97;;
43813;SDS011;29669;55.706;37.656;2022-08-20T14:21:03;10.43;;;4.95;;
43813;SDS011;29669;55.706;37.656;2022-08-20T14:24:24;13.05;;;5.32;;
43813;SDS011;29669;55.706;37.656;2022-08-20T14:27:45;13.10;;;5.15;;
43813;SDS011;29669;55.706;37.656;2022-08-20T14:31:06;11.10;;;4.53;;
43813;SDS011;29669;55.706;37.656;2022-08-20T14:34:27;9.45;;;5.03;;
43813;SDS011;29669;55.706;37.656;2022-08-20T14:37:49;9.15;;;4.60;;
43813;SDS011;29669;55.706;37.656;2022-08-20T14:41:11;7.28;;;5.05;;
43813;SDS011;29669;55.706;37.656;2022-08-20T14:44:32;8.73;;;4.38;;
43813;SDS011;29669;55.706;37.656;2022-08-20T14:47:57;13.52;;;4.20;;
43813;SDS011;29669;55.706;37.656;2022-08-20T14:51:18;14.88;;;4.45;;
43813;SDS011;29669;55.706;37.656;2022-08-20T14:54:39;12.40;;;3.75;;
43813;SDS011;29669;55.706;37.656;2022-08-20T14:58:05;38.83;;;4.90;;
43813;SDS011;29669;55.706;37.656;2022-08-20T15:01:30;6.35;;;3.40;;
43813;SDS011;29669;55.706;37.656;2022-08-20T15:04:51;9.88;;;4.03;;
43813;SDS011;29669;55.706;37.656;2022-08-20T15:08:12;7.68;;;3.95;;
43813;SDS011;29669;55.706;37.656;2022-08-20T15:11:34;14.20;;;4.70;;
43813;SDS011;29669;55.706;37.656;2022-08-20T15:14:55;12.18;;;3.80;;
43813;SDS011;29669;55.706;37.656;2022-08-20T15:18:20;7.35;;;3.30;;
43813;SDS011;29669;55.706;37.656;2022-08-20T15:21:41;8.50;;;3.90;;
43813;SDS011;29669;55.706;37.656;2022-08-20T15:25:02;9.38;;;3.67;;
43813;SDS011;29669;55.706;37.656;2022-08-20T15:28:25;10.65;;;4.25;;
43813;SDS011;29669;55.706;37.656;2022-08-20T15:31:46;6.57;;;3.55;;
43813;SDS011;29669;55.706;37.656;2022-08-20T15:35:07;14.75;;;4.47;;
43813;SDS011;29669;55.706;37.656;2022-08-20T15:38:28;13.35;;;4.45;;
43813;SDS011;29669;55.706;37.656;2022-08-20T15:41:42;11.35;;;4.13;;
43813;SDS011;29669;55.706;37.656;2022-08-20T15:45:04;9.48;;;4.72;;
43813;SDS011;29669;55.706;37.656;2022-08-20T15:48:35;7.88;;;3.63;;
43813;SDS011;29669;55.706;37.656;2022-08-20T15:51:58;10.32;;;3.50;;
43813;SDS011;29669;55.706;37.656;2022-08-20T15:55:19;8.35;;;3.70;;
43813;SDS011;29669;55.706;37.656;2022-08-20T16:09:34;9.00;;;3.90;;
43813;SDS011;29669;55.706;37.656;2022-08-20T16:13:07;7.45;;;3.72;;
43813;SDS011;29669;55.706;37.656;2022-08-20T16:16:39;15.20;;;4.35;;
43813;SDS011;29669;55.706;37.656;2022-08-20T16:20:12;16.48;;;3.97;;
43813;SDS011;29669;55.706;37.656;2022-08-20T16:23:46;7.97;;;3.50;;
43813;SDS011;29669;55.706;37.656;2022-08-20T16:27:33;12.63;;;4.50;;
43813;SDS011;29669;55.706;37.656;2022-08-20T16:31:00;9.85;;;3.65;;
43813;SDS011;29669;55.706;37.656;2022-08-20T16:34:26;8.45;;;3.67;;
43813;SDS011;29669;55.706;37.656;2022-08-20T16:45:25;13.10;;;3.80;;
43813;SDS011;29669;55.706;37.656;2022-08-20T16:48:53;12.13;;;4.10;;
43813;SDS011;29669;55.706;37.656;2022-08-20T16:52:15;8.52;;;4.20;;
43813;SDS011;29669;55.706;37.656;2022-08-20T16:55:36;10.05;;;3.58;;
43813;SDS011;29669;55.706;37.656;2022-08-20T16:59:00;12.52;;;5.30;;
43813;SDS011;29669;55.706;37.656;2022-08-20T17:02:32;13.55;;;4.20;;
43813;SDS011;29669;55.706;37.656;2022-08-20T17:05:47;10.73;;;4.43;;
43813;SDS011;29669;55.706;37.656;2022-08-20T17:12:56;11.85;;;3.90;;
43813;SDS011;29669;55.706;37.656;2022-08-20T17:16:19;16.67;;;4.50;;
43813;SDS011;29669;55.706;37.656;2022-08-20T17:19:40;15.85;;;4.85;;
43813;SDS011;29669;55.706;37.656;2022-08-20T17:23:13;14.93;;;4.55;;
43813;SDS011;29669;55.706;37.656;2022-08-20T17:26:36;8.55;;;4.28;;
43813;SDS011;29669;55.706;37.656;2022-08-20T17:30:04;15.25;;;4.70;;
43813;SDS011;29669;55.706;37.656;2022-08-20T17:33:32;9.50;;;4.05;;
43813;SDS011;29669;55.706;37.656;2022-08-20T17:37:03;6.70;;;3.50;;
43813;SDS011;29669;55.706;37.656;2022-08-20T17:40:45;9.07;;;4.35;;
43813;SDS011;29669;55.706;37.656;2022-08-20T17:44:07;9.60;;;3.50;;
43813;SDS011;29669;55.706;37.656;2022-08-20T17:47:41;12.35;;;3.95;;
43813;SDS011;29669;55.706;37.656;2022-08-20T17:51:32;11.95;;;4.28;;
43813;SDS011;29669;55.706;37.656;2022-08-20T17:54:56;6.97;;;3.55;;
43813;SDS011;29669;55.706;37.656;2022-08-20T17:58:18;11.73;;;3.90;;
43813;SDS011;29669;55.706;37.656;2022-08-20T18:01:44;9.00;;;4.40;;
43813;SDS011;29669;55.706;37.656;2022-08-20T18:05:08;7.18;;;3.72;;
43813;SDS011;29669;55.706;37.656;2022-08-20T18:12:14;8.60;;;3.53;;
43813;SDS011;29669;55.706;37.656;2022-08-20T18:15:55;6.45;;;3.72;;
43813;SDS011;29669;55.706;37.656;2022-08-20T18:23:03;8.27;;;3.38;;
43813;SDS011;29669;55.706;37.656;2022-08-20T18:26:48;16.25;;;3.67;;
43813;SDS011;29669;55.706;37.656;2022-08-20T18:30:20;8.15;;;3.45;;
43813;SDS011;29669;55.706;37.656;2022-08-20T18:33:42;10.55;;;3.67;;
43813;SDS011;29669;55.706;37.656;2022-08-20T18:37:19;8.98;;;4.22;;
43813;SDS011;29669;55.706;37.656;2022-08-20T18:40:42;6.30;;;3.28;;
43813;SDS011;29669;55.706;37.656;2022-08-20T18:50:54;9.23;;;3.85;;
43813;SDS011;29669;55.706;37.656;2022-08-20T18:54:24;5.65;;;3.15;;
43813;SDS011;29669;55.706;37.656;2022-08-20T18:57:55;10.57;;;3.70;;
43813;SDS011;29669;55.706;37.656;2022-08-20T19:01:20;13.73;;;3.80;;
43813;SDS011;29669;55.706;37.656;2022-08-20T19:04:41;7.47;;;3.58;;
43813;SDS011;29669;55.706;37.656;2022-08-20T19:08:08;6.00;;;3.45;;
43813;SDS011;29669;55.706;37.656;2022-08-20T19:15:14;9.65;;;3.67;;
43813;SDS011;29669;55.706;37.656;2022-08-20T19:18:41;10.07;;;3.80;;
43813;SDS011;29669;55.706;37.656;2022-08-20T19:22:06;7.65;;;3.55;;
43813;SDS011;29669;55.706;37.656;2022-08-20T19:25:36;8.70;;;3.85;;
43813;SDS011;29669;55.706;37.656;2022-08-20T19:29:00;6.25;;;4.10;;
43813;SDS011;29669;55.706;37.656;2022-08-20T19:32:28;7.50;;;3.47;;
43813;SDS011;29669;55.706;37.656;2022-08-20T19:36:17;7.00;;;3.55;;
43813;SDS011;29669;55.706;37.656;2022-08-20T19:39:39;6.55;;;3.80;;
43813;SDS011;29669;55.706;37.656;2022-08-20T19:43:01;10.48;;;3.50;;
43813;SDS011;29669;55.706;37.656;2022-08-20T19:46:28;8.82;;;3.67;;
43813;SDS011;29669;55.706;37.656;2022-08-20T19:53:28;11.43;;;3.97;;
43813;SDS011;29669;55.706;37.656;2022-08-20T19:56:54;9.23;;;3.58;;
43813;SDS011;29669;55.706;37.656;2022-08-20T20:00:16;7.78;;;3.97;;
43813;SDS011;29669;55.706;37.656;2022-08-20T20:03:37;9.35;;;4.38;;
43813;SDS011;29669;55.706;37.656;2022-08-20T20:06:58;7.88;;;4.45;;
43813;SDS011;29669;55.706;37.656;2022-08-20T20:10:28;10.70;;;4.00;;
43813;SDS011;29669;55.706;37.656;2022-08-20T20:13:50;12.48;;;4.75;;
43813;SDS011;29669;55.706;37.656;2022-08-20T20:17:12;17.77;;;5.43;;
43813;SDS011;29669;55.706;37.656;2022-08-20T20:20:47;8.30;;;4.88;;
43813;SDS011;29669;55.706;37.656;2022-08-20T20:24:18;15.70;;;5.32;;
43813;SDS011;29669;55.706;37.656;2022-08-20T20:27:49;19.05;;;6.53;;
43813;SDS011;29669;55.706;37.656;2022-08-20T20:31:23;16.02;;;6.20;;
43813;SDS011;29669;55.706;37.656;2022-08-20T20:34:53;13.60;;;5.70;;
43813;SDS011;29669;55.706;37.656;2022-08-20T20:38:26;15.02;;;7.18;;
43813;SDS011;29669;55.706;37.656;2022-08-20T20:41:51;16.70;;;7.60;;
43813;SDS011;29669;55.706;37.656;2022-08-20T20:45:14;18.55;;;8.07;;